sensor_id;sensor_type;location;lat;lon;timestamp;P1;durP1;ratioP1;P2;durP2;ratioP2
64063;SDS011;50314;50.618;10.642;2023-08-21T00:02:18;11.45;;;8.07;;
64063;SDS011;50314;50.618;10.642;2023-08-21T00:04:43;10.75;;;8.18;;
64063;SDS011;50314;50.618;10.642;2023-08-21T00:07:09;11.07;;;8.48;;
64063;SDS011;50314;50.618;10.642;2023-08-21T00:09:35;9.38;;;7.63;;
64063;SDS011;50314;50.618;10.642;2023-08-21T00:12:01;9.43;;;8.27;;
64063;SDS011;50314;50.618;10.642;2023-08-21T00:14:29;10.85;;;7.50;;
64063;SDS011;50314;50.618;10.642;2023-08-21T00:16:54;10.00;;;8.32;;
64063;SDS011;50314;50.618;10.642;2023-08-21T00:19:19;9.48;;;8.25;;
64063;SDS011;50314;50.618;10.642;2023-08-21T00:21:45;10.23;;;8.00;;
64063;SDS011;50314;50.618;10.642;2023-08-21T00:24:10;10.23;;;8.23;;
64063;SDS011;50314;50.618;10.642;2023-08-21T00:26:36;11.43;;;7.70;;
64063;SDS011;50314;50.618;10.642;2023-08-21T00:29:01;9.88;;;7.15;;
64063;SDS011;50314;50.618;10.642;2023-08-21T00:31:27;8.45;;;7.13;;
64063;SDS011;50314;50.618;10.642;2023-08-21T00:33:52;9.63;;;8.05;;
64063;SDS011;50314;50.618;10.642;2023-08-21T00:36:18;9.13;;;7.60;;
64063;SDS011;50314;50.618;10.642;2023-08-21T00:38:45;9.73;;;7.72;;
64063;SDS011;50314;50.618;10.642;2023-08-21T00:41:10;9.55;;;8.02;;
64063;SDS011;50314;50.618;10.642;2023-08-21T00:43:36;9.43;;;7.95;;
64063;SDS011;50314;50.618;10.642;2023-08-21T00:46:01;9.32;;;7.35;;
64063;SDS011;50314;50.618;10.642;2023-08-21T00:48:28;10.45;;;7.57;;
64063;SDS011;50314;50.618;10.642;2023-08-21T00:50:54;9.43;;;8.07;;
64063;SDS011;50314;50.618;10.642;2023-08-21T00:53:20;9.55;;;7.53;;
64063;SDS011;50314;50.618;10.642;2023-08-21T00:55:46;8.10;;;6.95;;
64063;SDS011;50314;50.618;10.642;2023-08-21T00:58:12;8.80;;;7.03;;
64063;SDS011;50314;50.618;10.642;2023-08-21T01:00:38;8.05;;;6.80;;
64063;SDS011;50314;50.618;10.642;2023-08-21T01:05:30;10.07;;;6.85;;
64063;SDS011;50314;50.618;10.642;2023-08-21T01:08:05;8.45;;;6.18;;
64063;SDS011;50314;50.618;10.642;2023-08-21T01:10:53;8.43;;;6.65;;
64063;SDS011;50314;50.618;10.642;2023-08-21T01:13:31;7.53;;;6.40;;
64063;SDS011;50314;50.618;10.642;2023-08-21T01:16:13;7.95;;;5.55;;
64063;SDS011;50314;50.618;10.642;2023-08-21T01:18:39;8.80;;;6.57;;
64063;SDS011;50314;50.618;10.642;2023-08-21T01:21:06;8.93;;;6.35;;
64063;SDS011;50314;50.618;10.642;2023-08-21T01:26:01;7.35;;;5.45;;
64063;SDS011;50314;50.618;10.642;2023-08-21T01:28:27;7.15;;;5.20;;
64063;SDS011;50314;50.618;10.642;2023-08-21T01:30:56;6.68;;;5.38;;
64063;SDS011;50314;50.618;10.642;2023-08-21T01:33:30;7.13;;;5.25;;
64063;SDS011;50314;50.618;10.642;2023-08-21T01:36:00;8.48;;;5.28;;
64063;SDS011;50314;50.618;10.642;2023-08-21T01:38:29;8.73;;;5.25;;
64063;SDS011;50314;50.618;10.642;2023-08-21T01:40:58;6.05;;;4.63;;
64063;SDS011;50314;50.618;10.642;2023-08-21T01:43:24;6.18;;;4.80;;
64063;SDS011;50314;50.618;10.642;2023-08-21T01:45:49;6.95;;;4.80;;
64063;SDS011;50314;50.618;10.642;2023-08-21T01:48:15;6.78;;;5.78;;
64063;SDS011;50314;50.618;10.642;2023-08-21T01:50:40;7.72;;;5.30;;
64063;SDS011;50314;50.618;10.642;2023-08-21T01:53:06;7.70;;;6.05;;
64063;SDS011;50314;50.618;10.642;2023-08-21T01:55:31;8.02;;;6.10;;
64063;SDS011;50314;50.618;10.642;2023-08-21T01:57:57;7.82;;;5.60;;
64063;SDS011;50314;50.618;10.642;2023-08-21T02:00:22;7.82;;;5.88;;
64063;SDS011;50314;50.618;10.642;2023-08-21T02:02:48;9.65;;;6.03;;
64063;SDS011;50314;50.618;10.642;2023-08-21T02:05:13;7.68;;;5.38;;
64063;SDS011;50314;50.618;10.642;2023-08-21T02:07:38;7.03;;;4.72;;
64063;SDS011;50314;50.618;10.642;2023-08-21T02:10:04;6.55;;;5.53;;
64063;SDS011;50314;50.618;10.642;2023-08-21T02:12:30;6.20;;;5.60;;
64063;SDS011;50314;50.618;10.642;2023-08-21T02:14:56;6.07;;;4.80;;
64063;SDS011;50314;50.618;10.642;2023-08-21T02:17:22;7.32;;;4.85;;
64063;SDS011;50314;50.618;10.642;2023-08-21T02:19:51;6.68;;;4.55;;
64063;SDS011;50314;50.618;10.642;2023-08-21T02:22:16;6.32;;;4.35;;
64063;SDS011;50314;50.618;10.642;2023-08-21T02:24:42;5.80;;;4.35;;
64063;SDS011;50314;50.618;10.642;2023-08-21T02:27:07;7.65;;;4.32;;
64063;SDS011;50314;50.618;10.642;2023-08-21T02:29:33;4.68;;;3.97;;
64063;SDS011;50314;50.618;10.642;2023-08-21T02:31:58;6.38;;;4.40;;
64063;SDS011;50314;50.618;10.642;2023-08-21T02:34:24;6.32;;;4.53;;
64063;SDS011;50314;50.618;10.642;2023-08-21T02:36:49;6.03;;;4.85;;
64063;SDS011;50314;50.618;10.642;2023-08-21T02:39:15;7.10;;;4.82;;
64063;SDS011;50314;50.618;10.642;2023-08-21T02:41:40;8.18;;;4.88;;
64063;SDS011;50314;50.618;10.642;2023-08-21T02:44:05;6.53;;;4.50;;
64063;SDS011;50314;50.618;10.642;2023-08-21T02:46:31;8.02;;;5.25;;
64063;SDS011;50314;50.618;10.642;2023-08-21T02:48:58;7.78;;;5.10;;
64063;SDS011;50314;50.618;10.642;2023-08-21T02:51:23;7.40;;;5.43;;
64063;SDS011;50314;50.618;10.642;2023-08-21T02:53:49;5.65;;;4.60;;
64063;SDS011;50314;50.618;10.642;2023-08-21T02:56:14;6.13;;;4.55;;
64063;SDS011;50314;50.618;10.642;2023-08-21T02:58:40;6.95;;;4.07;;
64063;SDS011;50314;50.618;10.642;2023-08-21T03:01:05;7.15;;;3.92;;
64063;SDS011;50314;50.618;10.642;2023-08-21T03:03:31;7.05;;;4.63;;
64063;SDS011;50314;50.618;10.642;2023-08-21T03:05:58;7.32;;;3.80;;
64063;SDS011;50314;50.618;10.642;2023-08-21T03:08:24;6.35;;;3.83;;
64063;SDS011;50314;50.618;10.642;2023-08-21T03:10:49;6.72;;;4.18;;
64063;SDS011;50314;50.618;10.642;2023-08-21T03:13:15;7.32;;;4.30;;
64063;SDS011;50314;50.618;10.642;2023-08-21T03:15:40;8.23;;;4.45;;
64063;SDS011;50314;50.618;10.642;2023-08-21T03:18:06;7.22;;;4.07;;
64063;SDS011;50314;50.618;10.642;2023-08-21T03:20:31;6.15;;;5.03;;
64063;SDS011;50314;50.618;10.642;2023-08-21T03:22:57;6.63;;;4.13;;
64063;SDS011;50314;50.618;10.642;2023-08-21T03:25:22;6.85;;;4.25;;
64063;SDS011;50314;50.618;10.642;2023-08-21T03:27:47;5.60;;;4.07;;
64063;SDS011;50314;50.618;10.642;2023-08-21T03:30:14;4.97;;;4.20;;
64063;SDS011;50314;50.618;10.642;2023-08-21T03:32:40;8.07;;;4.32;;
64063;SDS011;50314;50.618;10.642;2023-08-21T03:35:06;5.30;;;3.80;;
64063;SDS011;50314;50.618;10.642;2023-08-21T03:37:31;7.07;;;4.40;;
64063;SDS011;50314;50.618;10.642;2023-08-21T03:39:57;6.38;;;5.38;;
64063;SDS011;50314;50.618;10.642;2023-08-21T03:42:22;8.82;;;4.57;;
64063;SDS011;50314;50.618;10.642;2023-08-21T03:44:48;7.55;;;4.35;;
64063;SDS011;50314;50.618;10.642;2023-08-21T03:49:40;6.95;;;4.47;;
64063;SDS011;50314;50.618;10.642;2023-08-21T03:52:06;5.30;;;4.05;;
64063;SDS011;50314;50.618;10.642;2023-08-21T03:54:31;6.90;;;4.03;;
64063;SDS011;50314;50.618;10.642;2023-08-21T03:56:57;6.18;;;4.60;;
64063;SDS011;50314;50.618;10.642;2023-08-21T03:59:22;6.05;;;4.47;;
64063;SDS011;50314;50.618;10.642;2023-08-21T04:01:49;6.00;;;4.18;;
64063;SDS011;50314;50.618;10.642;2023-08-21T04:04:14;7.82;;;4.40;;
64063;SDS011;50314;50.618;10.642;2023-08-21T04:06:40;6.60;;;4.80;;
64063;SDS011;50314;50.618;10.642;2023-08-21T04:09:05;5.40;;;4.75;;
64063;SDS011;50314;50.618;10.642;2023-08-21T04:11:31;8.32;;;4.18;;
64063;SDS011;50314;50.618;10.642;2023-08-21T04:13:58;6.20;;;4.75;;
64063;SDS011;50314;50.618;10.642;2023-08-21T04:16:24;7.90;;;4.82;;
64063;SDS011;50314;50.618;10.642;2023-08-21T04:18:49;7.75;;;4.78;;
64063;SDS011;50314;50.618;10.642;2023-08-21T04:21:15;6.43;;;4.70;;
64063;SDS011;50314;50.618;10.642;2023-08-21T04:23:40;6.57;;;4.57;;
64063;SDS011;50314;50.618;10.642;2023-08-21T04:26:06;5.53;;;4.43;;
64063;SDS011;50314;50.618;10.642;2023-08-21T04:28:32;5.88;;;4.32;;
64063;SDS011;50314;50.618;10.642;2023-08-21T04:30:58;7.40;;;4.30;;
64063;SDS011;50314;50.618;10.642;2023-08-21T04:33:24;6.55;;;4.57;;
64063;SDS011;50314;50.618;10.642;2023-08-21T04:35:53;7.78;;;4.97;;
64063;SDS011;50314;50.618;10.642;2023-08-21T04:38:19;6.85;;;5.00;;
64063;SDS011;50314;50.618;10.642;2023-08-21T04:40:44;7.43;;;4.45;;
64063;SDS011;50314;50.618;10.642;2023-08-21T04:43:10;5.82;;;4.70;;
64063;SDS011;50314;50.618;10.642;2023-08-21T04:45:35;5.18;;;3.88;;
64063;SDS011;50314;50.618;10.642;2023-08-21T04:48:03;5.65;;;4.30;;
64063;SDS011;50314;50.618;10.642;2023-08-21T04:50:29;6.82;;;4.28;;
64063;SDS011;50314;50.618;10.642;2023-08-21T04:52:55;8.25;;;4.65;;
64063;SDS011;50314;50.618;10.642;2023-08-21T04:55:20;4.55;;;3.25;;
64063;SDS011;50314;50.618;10.642;2023-08-21T04:57:46;7.18;;;3.95;;
64063;SDS011;50314;50.618;10.642;2023-08-21T05:00:11;6.00;;;4.10;;
64063;SDS011;50314;50.618;10.642;2023-08-21T05:02:37;6.50;;;4.65;;
64063;SDS011;50314;50.618;10.642;2023-08-21T05:05:03;5.75;;;4.03;;
64063;SDS011;50314;50.618;10.642;2023-08-21T05:07:29;5.95;;;3.92;;
64063;SDS011;50314;50.618;10.642;2023-08-21T05:09:55;5.35;;;3.90;;
64063;SDS011;50314;50.618;10.642;2023-08-21T05:12:23;4.47;;;3.20;;
64063;SDS011;50314;50.618;10.642;2023-08-21T05:14:51;5.63;;;4.20;;
64063;SDS011;50314;50.618;10.642;2023-08-21T05:17:16;7.35;;;3.53;;
64063;SDS011;50314;50.618;10.642;2023-08-21T05:19:41;6.70;;;3.78;;
64063;SDS011;50314;50.618;10.642;2023-08-21T05:22:07;5.45;;;3.80;;
64063;SDS011;50314;50.618;10.642;2023-08-21T05:24:32;6.55;;;4.00;;
64063;SDS011;50314;50.618;10.642;2023-08-21T05:26:58;5.15;;;3.53;;
64063;SDS011;50314;50.618;10.642;2023-08-21T05:29:23;7.63;;;5.75;;
64063;SDS011;50314;50.618;10.642;2023-08-21T05:31:49;5.15;;;4.07;;
64063;SDS011;50314;50.618;10.642;2023-08-21T05:34:14;5.50;;;4.03;;
64063;SDS011;50314;50.618;10.642;2023-08-21T05:36:47;5.90;;;3.85;;
64063;SDS011;50314;50.618;10.642;2023-08-21T05:39:16;6.65;;;3.53;;
64063;SDS011;50314;50.618;10.642;2023-08-21T05:41:48;4.82;;;4.35;;
64063;SDS011;50314;50.618;10.642;2023-08-21T05:44:14;5.75;;;4.50;;
64063;SDS011;50314;50.618;10.642;2023-08-21T05:46:44;5.53;;;4.25;;
64063;SDS011;50314;50.618;10.642;2023-08-21T05:49:12;6.07;;;5.07;;
64063;SDS011;50314;50.618;10.642;2023-08-21T05:51:51;6.90;;;4.25;;
64063;SDS011;50314;50.618;10.642;2023-08-21T05:54:27;6.95;;;5.05;;
64063;SDS011;50314;50.618;10.642;2023-08-21T05:57:26;5.70;;;3.70;;
64063;SDS011;50314;50.618;10.642;2023-08-21T05:59:51;5.30;;;3.90;;
64063;SDS011;50314;50.618;10.642;2023-08-21T06:02:17;5.05;;;3.38;;
64063;SDS011;50314;50.618;10.642;2023-08-21T06:04:42;7.90;;;3.83;;
64063;SDS011;50314;50.618;10.642;2023-08-21T06:07:08;4.88;;;3.70;;
64063;SDS011;50314;50.618;10.642;2023-08-21T06:09:34;7.15;;;4.50;;
64063;SDS011;50314;50.618;10.642;2023-08-21T06:17:04;5.00;;;3.97;;
64063;SDS011;50314;50.618;10.642;2023-08-21T06:19:30;4.75;;;3.85;;
64063;SDS011;50314;50.618;10.642;2023-08-21T06:21:56;5.78;;;4.25;;
64063;SDS011;50314;50.618;10.642;2023-08-21T06:24:22;5.50;;;3.75;;
64063;SDS011;50314;50.618;10.642;2023-08-21T06:26:48;6.57;;;4.82;;
64063;SDS011;50314;50.618;10.642;2023-08-21T06:29:14;6.03;;;4.32;;
64063;SDS011;50314;50.618;10.642;2023-08-21T06:31:40;8.05;;;4.85;;
64063;SDS011;50314;50.618;10.642;2023-08-21T06:34:05;5.90;;;4.68;;
64063;SDS011;50314;50.618;10.642;2023-08-21T06:36:31;6.35;;;4.47;;
64063;SDS011;50314;50.618;10.642;2023-08-21T06:38:56;6.32;;;4.20;;
64063;SDS011;50314;50.618;10.642;2023-08-21T06:41:22;7.35;;;4.80;;
64063;SDS011;50314;50.618;10.642;2023-08-21T06:43:47;6.22;;;4.63;;
64063;SDS011;50314;50.618;10.642;2023-08-21T06:46:13;7.88;;;4.93;;
64063;SDS011;50314;50.618;10.642;2023-08-21T06:48:39;5.72;;;4.70;;
64063;SDS011;50314;50.618;10.642;2023-08-21T06:51:08;7.75;;;4.55;;
64063;SDS011;50314;50.618;10.642;2023-08-21T06:53:35;8.50;;;5.47;;
64063;SDS011;50314;50.618;10.642;2023-08-21T06:56:01;7.70;;;5.68;;
64063;SDS011;50314;50.618;10.642;2023-08-21T06:58:27;7.35;;;4.63;;
64063;SDS011;50314;50.618;10.642;2023-08-21T07:00:56;6.93;;;5.78;;
64063;SDS011;50314;50.618;10.642;2023-08-21T07:03:22;7.82;;;5.30;;
64063;SDS011;50314;50.618;10.642;2023-08-21T07:05:57;6.50;;;5.03;;
64063;SDS011;50314;50.618;10.642;2023-08-21T07:08:24;5.88;;;4.97;;
64063;SDS011;50314;50.618;10.642;2023-08-21T07:13:17;6.15;;;4.30;;
64063;SDS011;50314;50.618;10.642;2023-08-21T07:15:43;7.75;;;5.18;;
64063;SDS011;50314;50.618;10.642;2023-08-21T07:18:09;6.38;;;5.00;;
64063;SDS011;50314;50.618;10.642;2023-08-21T07:20:34;6.35;;;4.88;;
64063;SDS011;50314;50.618;10.642;2023-08-21T07:23:00;5.50;;;4.53;;
64063;SDS011;50314;50.618;10.642;2023-08-21T07:25:26;7.57;;;4.80;;
64063;SDS011;50314;50.618;10.642;2023-08-21T07:27:53;7.00;;;5.00;;
64063;SDS011;50314;50.618;10.642;2023-08-21T07:30:19;6.60;;;5.60;;
64063;SDS011;50314;50.618;10.642;2023-08-21T07:32:45;7.25;;;5.07;;
64063;SDS011;50314;50.618;10.642;2023-08-21T07:35:11;6.53;;;5.10;;
64063;SDS011;50314;50.618;10.642;2023-08-21T07:37:37;7.05;;;4.75;;
64063;SDS011;50314;50.618;10.642;2023-08-21T07:40:02;5.85;;;5.25;;
64063;SDS011;50314;50.618;10.642;2023-08-21T07:42:30;6.22;;;4.90;;
64063;SDS011;50314;50.618;10.642;2023-08-21T07:44:56;7.03;;;5.07;;
64063;SDS011;50314;50.618;10.642;2023-08-21T07:47:21;5.80;;;4.43;;
64063;SDS011;50314;50.618;10.642;2023-08-21T07:49:47;6.25;;;4.25;;
64063;SDS011;50314;50.618;10.642;2023-08-21T07:52:12;4.90;;;3.75;;
64063;SDS011;50314;50.618;10.642;2023-08-21T07:54:38;6.85;;;4.45;;
64063;SDS011;50314;50.618;10.642;2023-08-21T08:00:03;5.25;;;4.20;;
64063;SDS011;50314;50.618;10.642;2023-08-21T08:02:33;6.22;;;4.53;;
64063;SDS011;50314;50.618;10.642;2023-08-21T08:04:59;6.63;;;4.57;;
64063;SDS011;50314;50.618;10.642;2023-08-21T08:07:25;6.43;;;4.50;;
64063;SDS011;50314;50.618;10.642;2023-08-21T08:09:50;5.40;;;4.88;;
64063;SDS011;50314;50.618;10.642;2023-08-21T08:12:16;8.05;;;5.63;;
64063;SDS011;50314;50.618;10.642;2023-08-21T08:14:42;9.48;;;5.32;;
64063;SDS011;50314;50.618;10.642;2023-08-21T08:17:07;6.97;;;4.65;;
64063;SDS011;50314;50.618;10.642;2023-08-21T08:19:33;7.22;;;5.32;;
64063;SDS011;50314;50.618;10.642;2023-08-21T08:21:59;6.90;;;5.03;;
64063;SDS011;50314;50.618;10.642;2023-08-21T08:24:24;6.47;;;4.95;;
64063;SDS011;50314;50.618;10.642;2023-08-21T08:26:50;10.18;;;5.13;;
64063;SDS011;50314;50.618;10.642;2023-08-21T08:29:15;7.95;;;4.95;;
64063;SDS011;50314;50.618;10.642;2023-08-21T08:31:41;7.53;;;5.43;;
64063;SDS011;50314;50.618;10.642;2023-08-21T08:34:06;5.68;;;4.68;;
64063;SDS011;50314;50.618;10.642;2023-08-21T08:36:32;7.15;;;5.00;;
64063;SDS011;50314;50.618;10.642;2023-08-21T08:38:57;7.47;;;5.22;;
64063;SDS011;50314;50.618;10.642;2023-08-21T08:44:05;6.65;;;4.95;;
64063;SDS011;50314;50.618;10.642;2023-08-21T08:46:31;7.03;;;4.78;;
64063;SDS011;50314;50.618;10.642;2023-08-21T08:48:57;7.15;;;5.15;;
64063;SDS011;50314;50.618;10.642;2023-08-21T08:51:25;6.50;;;5.07;;
64063;SDS011;50314;50.618;10.642;2023-08-21T08:53:55;7.20;;;5.20;;
64063;SDS011;50314;50.618;10.642;2023-08-21T08:56:23;6.18;;;4.90;;
64063;SDS011;50314;50.618;10.642;2023-08-21T08:58:49;6.85;;;4.95;;
64063;SDS011;50314;50.618;10.642;2023-08-21T09:01:15;9.57;;;5.57;;
64063;SDS011;50314;50.618;10.642;2023-08-21T09:03:40;6.50;;;4.95;;
64063;SDS011;50314;50.618;10.642;2023-08-21T09:06:06;5.90;;;4.75;;
64063;SDS011;50314;50.618;10.642;2023-08-21T09:08:31;7.53;;;4.28;;
64063;SDS011;50314;50.618;10.642;2023-08-21T09:11:00;6.38;;;4.03;;
64063;SDS011;50314;50.618;10.642;2023-08-21T09:13:27;8.68;;;5.03;;
64063;SDS011;50314;50.618;10.642;2023-08-21T09:15:53;6.72;;;5.03;;
64063;SDS011;50314;50.618;10.642;2023-08-21T09:18:33;5.88;;;4.72;;
64063;SDS011;50314;50.618;10.642;2023-08-21T09:21:01;6.65;;;4.97;;
64063;SDS011;50314;50.618;10.642;2023-08-21T09:23:28;6.25;;;4.55;;
64063;SDS011;50314;50.618;10.642;2023-08-21T09:25:53;6.65;;;4.97;;
64063;SDS011;50314;50.618;10.642;2023-08-21T09:28:20;8.48;;;5.20;;
64063;SDS011;50314;50.618;10.642;2023-08-21T09:30:50;6.20;;;4.78;;
64063;SDS011;50314;50.618;10.642;2023-08-21T09:33:17;6.68;;;5.10;;
64063;SDS011;50314;50.618;10.642;2023-08-21T09:35:43;7.75;;;5.53;;
64063;SDS011;50314;50.618;10.642;2023-08-21T09:38:10;7.63;;;5.32;;
64063;SDS011;50314;50.618;10.642;2023-08-21T09:40:39;5.70;;;4.90;;
64063;SDS011;50314;50.618;10.642;2023-08-21T09:45:35;6.75;;;4.85;;
64063;SDS011;50314;50.618;10.642;2023-08-21T09:48:01;6.88;;;4.63;;
64063;SDS011;50314;50.618;10.642;2023-08-21T09:50:31;6.43;;;4.72;;
64063;SDS011;50314;50.618;10.642;2023-08-21T09:52:58;8.48;;;4.70;;
64063;SDS011;50314;50.618;10.642;2023-08-21T09:55:24;6.70;;;4.60;;
64063;SDS011;50314;50.618;10.642;2023-08-21T09:57:56;5.60;;;4.80;;
64063;SDS011;50314;50.618;10.642;2023-08-21T10:00:30;7.22;;;5.03;;
64063;SDS011;50314;50.618;10.642;2023-08-21T10:03:02;6.35;;;4.82;;
64063;SDS011;50314;50.618;10.642;2023-08-21T10:05:33;6.35;;;4.38;;
64063;SDS011;50314;50.618;10.642;2023-08-21T10:08:03;8.85;;;4.88;;
64063;SDS011;50314;50.618;10.642;2023-08-21T10:10:31;8.38;;;4.93;;
64063;SDS011;50314;50.618;10.642;2023-08-21T10:12:59;6.95;;;4.75;;
64063;SDS011;50314;50.618;10.642;2023-08-21T10:17:52;5.57;;;4.38;;
64063;SDS011;50314;50.618;10.642;2023-08-21T10:20:22;6.88;;;4.60;;
64063;SDS011;50314;50.618;10.642;2023-08-21T10:22:50;9.55;;;5.43;;
64063;SDS011;50314;50.618;10.642;2023-08-21T10:25:19;6.35;;;3.88;;
64063;SDS011;50314;50.618;10.642;2023-08-21T10:27:50;9.00;;;4.43;;
64063;SDS011;50314;50.618;10.642;2023-08-21T10:30:21;17.17;;;7.55;;
64063;SDS011;50314;50.618;10.642;2023-08-21T10:32:49;13.73;;;5.93;;
64063;SDS011;50314;50.618;10.642;2023-08-21T10:48:43;6.35;;;4.47;;
64063;SDS011;50314;50.618;10.642;2023-08-21T10:51:09;8.55;;;5.05;;
64063;SDS011;50314;50.618;10.642;2023-08-21T10:53:35;10.70;;;5.32;;
64063;SDS011;50314;50.618;10.642;2023-08-21T10:56:04;14.18;;;6.13;;
64063;SDS011;50314;50.618;10.642;2023-08-21T10:58:51;10.73;;;5.53;;
64063;SDS011;50314;50.618;10.642;2023-08-21T11:01:19;14.18;;;6.55;;
64063;SDS011;50314;50.618;10.642;2023-08-21T11:03:50;14.70;;;6.10;;
64063;SDS011;50314;50.618;10.642;2023-08-21T11:06:18;10.98;;;5.93;;
64063;SDS011;50314;50.618;10.642;2023-08-21T11:08:44;12.57;;;6.30;;
64063;SDS011;50314;50.618;10.642;2023-08-21T11:11:11;11.70;;;5.38;;
64063;SDS011;50314;50.618;10.642;2023-08-21T11:13:36;10.98;;;5.03;;
64063;SDS011;50314;50.618;10.642;2023-08-21T11:16:02;9.98;;;5.55;;
64063;SDS011;50314;50.618;10.642;2023-08-21T11:18:33;11.68;;;5.47;;
64063;SDS011;50314;50.618;10.642;2023-08-21T11:21:03;8.50;;;4.95;;
64063;SDS011;50314;50.618;10.642;2023-08-21T11:23:33;10.13;;;5.25;;
64063;SDS011;50314;50.618;10.642;2023-08-21T11:26:11;8.93;;;4.95;;
64063;SDS011;50314;50.618;10.642;2023-08-21T11:28:37;8.90;;;4.50;;
64063;SDS011;50314;50.618;10.642;2023-08-21T11:31:04;9.68;;;5.15;;
64063;SDS011;50314;50.618;10.642;2023-08-21T11:33:30;10.73;;;5.43;;
64063;SDS011;50314;50.618;10.642;2023-08-21T11:35:56;8.43;;;4.65;;
64063;SDS011;50314;50.618;10.642;2023-08-21T11:38:24;10.07;;;5.63;;
64063;SDS011;50314;50.618;10.642;2023-08-21T11:41:00;8.57;;;4.13;;
64063;SDS011;50314;50.618;10.642;2023-08-21T11:43:39;7.03;;;4.18;;
64063;SDS011;50314;50.618;10.642;2023-08-21T11:46:07;10.52;;;5.15;;
64063;SDS011;50314;50.618;10.642;2023-08-21T11:48:36;8.43;;;4.95;;
64063;SDS011;50314;50.618;10.642;2023-08-21T11:51:04;8.13;;;3.80;;
64063;SDS011;50314;50.618;10.642;2023-08-21T11:53:31;8.25;;;3.55;;
64063;SDS011;50314;50.618;10.642;2023-08-21T11:55:57;8.30;;;4.80;;
64063;SDS011;50314;50.618;10.642;2023-08-21T11:58:22;8.95;;;4.50;;
64063;SDS011;50314;50.618;10.642;2023-08-21T12:00:48;6.70;;;4.22;;
64063;SDS011;50314;50.618;10.642;2023-08-21T12:03:17;8.77;;;3.88;;
64063;SDS011;50314;50.618;10.642;2023-08-21T12:05:43;8.32;;;3.83;;
64063;SDS011;50314;50.618;10.642;2023-08-21T12:15:02;6.20;;;4.15;;
64063;SDS011;50314;50.618;10.642;2023-08-21T12:17:27;5.13;;;3.45;;
64063;SDS011;50314;50.618;10.642;2023-08-21T12:19:53;5.68;;;3.15;;
64063;SDS011;50314;50.618;10.642;2023-08-21T12:22:19;5.70;;;3.47;;
64063;SDS011;50314;50.618;10.642;2023-08-21T12:24:45;6.00;;;3.70;;
64063;SDS011;50314;50.618;10.642;2023-08-21T12:27:10;5.60;;;3.33;;
64063;SDS011;50314;50.618;10.642;2023-08-21T12:29:36;6.40;;;4.10;;
64063;SDS011;50314;50.618;10.642;2023-08-21T12:32:01;5.53;;;3.40;;
64063;SDS011;50314;50.618;10.642;2023-08-21T12:34:28;5.43;;;3.15;;
64063;SDS011;50314;50.618;10.642;2023-08-21T12:37:00;4.03;;;3.25;;
64063;SDS011;50314;50.618;10.642;2023-08-21T12:39:25;7.10;;;4.20;;
64063;SDS011;50314;50.618;10.642;2023-08-21T12:41:51;4.53;;;3.65;;
64063;SDS011;50314;50.618;10.642;2023-08-21T12:44:16;5.43;;;3.30;;
64063;SDS011;50314;50.618;10.642;2023-08-21T12:46:42;3.88;;;2.60;;
64063;SDS011;50314;50.618;10.642;2023-08-21T12:49:08;4.28;;;3.00;;
64063;SDS011;50314;50.618;10.642;2023-08-21T12:51:33;4.85;;;3.42;;
64063;SDS011;50314;50.618;10.642;2023-08-21T12:53:58;4.28;;;2.90;;
64063;SDS011;50314;50.618;10.642;2023-08-21T12:56:24;6.10;;;3.10;;
64063;SDS011;50314;50.618;10.642;2023-08-21T12:58:49;5.65;;;3.17;;
64063;SDS011;50314;50.618;10.642;2023-08-21T13:01:16;5.35;;;3.00;;
64063;SDS011;50314;50.618;10.642;2023-08-21T13:03:45;4.65;;;3.10;;
64063;SDS011;50314;50.618;10.642;2023-08-21T13:06:13;4.18;;;2.65;;
64063;SDS011;50314;50.618;10.642;2023-08-21T13:11:14;5.10;;;3.63;;
64063;SDS011;50314;50.618;10.642;2023-08-21T13:13:40;3.70;;;2.60;;
64063;SDS011;50314;50.618;10.642;2023-08-21T13:16:06;4.13;;;3.30;;
64063;SDS011;50314;50.618;10.642;2023-08-21T13:18:31;3.67;;;2.83;;
64063;SDS011;50314;50.618;10.642;2023-08-21T13:20:57;3.70;;;3.20;;
64063;SDS011;50314;50.618;10.642;2023-08-21T13:23:23;4.65;;;2.75;;
64063;SDS011;50314;50.618;10.642;2023-08-21T13:25:48;3.33;;;2.75;;
64063;SDS011;50314;50.618;10.642;2023-08-21T13:28:14;3.88;;;2.90;;
64063;SDS011;50314;50.618;10.642;2023-08-21T13:30:40;5.05;;;3.03;;
64063;SDS011;50314;50.618;10.642;2023-08-21T13:33:05;4.07;;;2.90;;
64063;SDS011;50314;50.618;10.642;2023-08-21T13:35:32;4.03;;;2.80;;
64063;SDS011;50314;50.618;10.642;2023-08-21T13:37:57;3.38;;;2.95;;
64063;SDS011;50314;50.618;10.642;2023-08-21T13:40:23;3.70;;;2.88;;
64063;SDS011;50314;50.618;10.642;2023-08-21T13:42:49;3.70;;;3.00;;
64063;SDS011;50314;50.618;10.642;2023-08-21T13:45:34;3.67;;;2.78;;
64063;SDS011;50314;50.618;10.642;2023-08-21T13:51:21;4.53;;;2.60;;
64063;SDS011;50314;50.618;10.642;2023-08-21T13:53:46;3.85;;;2.85;;
64063;SDS011;50314;50.618;10.642;2023-08-21T13:56:12;3.70;;;2.67;;
64063;SDS011;50314;50.618;10.642;2023-08-21T13:58:38;4.72;;;3.25;;
64063;SDS011;50314;50.618;10.642;2023-08-21T14:01:03;4.07;;;2.90;;
64063;SDS011;50314;50.618;10.642;2023-08-21T14:03:29;3.80;;;2.78;;
64063;SDS011;50314;50.618;10.642;2023-08-21T14:05:54;4.35;;;2.55;;
64063;SDS011;50314;50.618;10.642;2023-08-21T14:08:20;6.05;;;3.00;;
64063;SDS011;50314;50.618;10.642;2023-08-21T14:10:45;4.32;;;3.13;;
64063;SDS011;50314;50.618;10.642;2023-08-21T14:13:11;2.85;;;2.50;;
64063;SDS011;50314;50.618;10.642;2023-08-21T14:15:37;4.05;;;2.70;;
64063;SDS011;50314;50.618;10.642;2023-08-21T14:18:02;3.83;;;2.78;;
64063;SDS011;50314;50.618;10.642;2023-08-21T14:20:28;3.33;;;2.50;;
64063;SDS011;50314;50.618;10.642;2023-08-21T14:22:54;4.90;;;3.20;;
64063;SDS011;50314;50.618;10.642;2023-08-21T14:25:19;4.00;;;3.20;;
64063;SDS011;50314;50.618;10.642;2023-08-21T14:27:45;5.05;;;3.40;;
64063;SDS011;50314;50.618;10.642;2023-08-21T14:30:11;3.03;;;2.70;;
64063;SDS011;50314;50.618;10.642;2023-08-21T14:32:37;4.10;;;2.83;;
64063;SDS011;50314;50.618;10.642;2023-08-21T14:35:03;6.10;;;2.88;;
64063;SDS011;50314;50.618;10.642;2023-08-21T14:37:30;3.50;;;2.42;;
64063;SDS011;50314;50.618;10.642;2023-08-21T14:39:56;6.32;;;2.88;;
64063;SDS011;50314;50.618;10.642;2023-08-21T14:42:21;3.58;;;2.40;;
64063;SDS011;50314;50.618;10.642;2023-08-21T14:44:47;4.13;;;2.90;;
64063;SDS011;50314;50.618;10.642;2023-08-21T14:47:12;4.13;;;2.33;;
64063;SDS011;50314;50.618;10.642;2023-08-21T14:49:38;4.20;;;2.50;;
64063;SDS011;50314;50.618;10.642;2023-08-21T14:52:03;5.63;;;2.60;;
64063;SDS011;50314;50.618;10.642;2023-08-21T14:54:35;4.15;;;3.13;;
64063;SDS011;50314;50.618;10.642;2023-08-21T14:57:01;3.72;;;3.10;;
64063;SDS011;50314;50.618;10.642;2023-08-21T14:59:27;4.03;;;3.22;;
64063;SDS011;50314;50.618;10.642;2023-08-21T15:01:52;3.88;;;3.45;;
64063;SDS011;50314;50.618;10.642;2023-08-21T15:04:20;4.18;;;3.38;;
64063;SDS011;50314;50.618;10.642;2023-08-21T15:06:45;4.43;;;3.50;;
64063;SDS011;50314;50.618;10.642;2023-08-21T15:09:11;4.13;;;2.55;;
64063;SDS011;50314;50.618;10.642;2023-08-21T15:11:38;3.92;;;3.53;;
64063;SDS011;50314;50.618;10.642;2023-08-21T15:14:08;4.82;;;3.35;;
64063;SDS011;50314;50.618;10.642;2023-08-21T15:16:36;4.60;;;2.95;;
64063;SDS011;50314;50.618;10.642;2023-08-21T15:19:01;5.10;;;3.33;;
64063;SDS011;50314;50.618;10.642;2023-08-21T15:21:27;4.30;;;3.22;;
64063;SDS011;50314;50.618;10.642;2023-08-21T15:23:53;3.70;;;3.20;;